Time;durP1;ratioP1;P1;durP2;ratioP2;P2;SDS_P1;SDS_P2;PMS_P1;PMS_P2;Temp;Humidity;BMP_temperature;BMP_pressure;BME280_temperature;BME280_humidity;BME280_pressure;Samples;Min_cycle;Max_cycle;Signal;HPM_P1;HPM_P2
2024/04/23 00:01:35;;;;;;;9.15;3.85;;;2.10;99.90;;;;;;5513328;26;20002;-84
2024/04/23 00:04:02;;;;;;;6.45;3.65;;;2.10;99.90;;;;;;5503703;26;20021;-84
2024/04/23 00:06:29;;;;;;;8.50;4.30;;;2.00;99.90;;;;;;5490007;26;20006;-83
2024/04/23 00:08:56;;;;;;;7.28;3.78;;;2.00;99.90;;;;;;5495646;26;20474;-84
2024/04/23 00:11:22;;;;;;;6.85;3.60;;;2.00;99.90;;;;;;5545219;26;20042;-83
2024/04/23 00:13:49;;;;;;;6.40;3.40;;;2.00;99.90;;;;;;5513831;26;20005;-83
2024/04/23 00:16:16;;;;;;;6.50;3.65;;;2.60;99.90;;;;;;5514597;26;20079;-84
2024/04/23 00:18:42;;;;;;;5.40;3.17;;;1.90;99.90;;;;;;5534351;26;20727;-83
2024/04/23 00:21:09;;;;;;;6.85;3.80;;;1.90;99.90;;;;;;5512071;26;20006;-84
2024/04/23 00:23:37;;;;;;;7.47;4.00;;;1.90;99.90;;;;;;5474289;26;20006;-83
2024/04/23 00:26:08;;;;;;;7.00;3.55;;;2.30;99.90;;;;;;5484604;26;20006;-83
2024/04/23 00:28:35;;;;;;;6.35;3.60;;;1.80;99.90;;;;;;5495453;26;20398;-83
2024/04/23 00:31:02;;;;;;;7.15;3.65;;;1.80;99.90;;;;;;5539676;26;20006;-83
2024/04/23 00:33:29;;;;;;;7.20;3.67;;;1.80;99.90;;;;;;5495216;26;20006;-83
2024/04/23 00:35:55;;;;;;;8.13;3.88;;;1.70;99.90;;;;;;5493621;26;20006;-83
2024/04/23 00:38:22;;;;;;;6.47;3.53;;;1.70;99.90;;;;;;5495132;26;20017;-83
2024/04/23 00:40:49;;;;;;;6.60;3.85;;;1.70;99.90;;;;;;5485924;26;20007;-83
2024/04/23 00:43:15;;;;;;;7.05;3.72;;;2.50;99.90;;;;;;5526399;26;20082;-83
2024/04/23 00:45:45;;;;;;;6.97;3.25;;;2.00;99.90;;;;;;5519265;26;20020;-84
2024/04/23 00:48:15;;;;;;;8.90;3.92;;;2.50;99.90;;;;;;5505425;26;20010;-84
2024/04/23 00:50:43;;;;;;;6.80;3.90;;;1.60;99.90;;;;;;5511148;26;20012;-83
2024/04/23 00:53:11;;;;;;;11.15;3.80;;;1.60;99.90;;;;;;5554186;26;20407;-83
2024/04/23 00:55:39;;;;;;;6.90;3.88;;;2.00;99.90;;;;;;5464309;26;20017;-83
2024/04/23 00:58:09;;;;;;;6.82;3.70;;;1.50;99.90;;;;;;5506146;26;20016;-83
2024/04/23 01:00:36;;;;;;;7.65;4.03;;;1.50;99.90;;;;;;5536515;26;20006;-84
2024/04/23 01:03:03;;;;;;;7.35;4.00;;;2.50;99.90;;;;;;5484357;26;20082;-83
2024/04/23 01:05:30;;;;;;;7.22;3.75;;;1.40;99.90;;;;;;5479347;26;20018;-83
2024/04/23 01:07:57;;;;;;;7.53;3.90;;;1.40;99.90;;;;;;5457025;26;20359;-83
2024/04/23 01:10:23;;;;;;;6.85;3.78;;;1.30;99.90;;;;;;5478544;26;20006;-83
2024/04/23 01:12:50;;;;;;;6.82;3.80;;;1.30;99.90;;;;;;5487722;26;20096;-84
2024/04/23 01:15:18;;;;;;;8.23;3.65;;;1.80;99.90;;;;;;5455669;26;20085;-83
2024/04/23 01:17:47;;;;;;;12.38;3.95;;;1.30;99.90;;;;;;5463763;26;20839;-83
2024/04/23 01:20:16;;;;;;;6.75;3.72;;;1.30;99.90;;;;;;5452998;26;20007;-84
2024/04/23 01:22:50;;;;;;;6.93;3.72;;;1.20;99.90;;;;;;5446900;26;20015;-83
2024/04/23 01:25:22;;;;;;;7.78;4.50;;;1.20;99.90;;;;;;5465112;26;20434;-83
2024/04/23 01:27:49;;;;;;;7.30;4.00;;;1.20;99.90;;;;;;5458145;26;20008;-83
2024/04/23 01:30:18;;;;;;;8.48;3.90;;;1.20;99.90;;;;;;5462676;26;20084;-83
2024/04/23 01:32:47;;;;;;;7.43;4.18;;;1.20;99.90;;;;;;5476212;26;20007;-83
2024/04/23 01:35:34;;;;;;;7.35;3.53;;;1.10;99.90;;;;;;5427456;26;20003;-83
2024/04/23 01:38:02;;;;;;;7.03;4.00;;;1.10;99.90;;;;;;5453505;26;20456;-83
2024/04/23 01:40:29;;;;;;;8.93;3.75;;;1.10;99.90;;;;;;5428513;26;20349;-83
2024/04/23 01:42:56;;;;;;;7.55;4.05;;;1.10;99.90;;;;;;5468271;26;20007;-83
2024/04/23 01:45:24;;;;;;;7.35;4.25;;;1.00;99.90;;;;;;5459478;26;20020;-84
2024/04/23 01:47:50;;;;;;;9.25;4.00;;;1.10;99.90;;;;;;5453013;26;20019;-83
2024/04/23 01:50:18;;;;;;;7.15;4.13;;;1.00;99.90;;;;;;5448781;26;20014;-83
2024/04/23 01:52:45;;;;;;;7.13;3.90;;;0.90;99.90;;;;;;5476110;26;20007;-83
2024/04/23 01:55:12;;;;;;;9.50;4.47;;;0.90;99.90;;;;;;5433712;26;20464;-83
2024/04/23 01:57:39;;;;;;;7.10;3.83;;;0.90;99.90;;;;;;5454950;26;20099;-83
2024/04/23 02:00:17;;;;;;;9.45;4.22;;;0.90;99.90;;;;;;5473709;26;20467;-83
2024/04/23 02:02:46;;;;;;;8.27;4.38;;;2.00;99.90;;;;;;5461556;26;20017;-83
2024/04/23 02:05:14;;;;;;;8.60;4.55;;;1.60;99.90;;;;;;5488145;26;20005;-83
2024/04/23 02:07:42;;;;;;;9.15;4.57;;;0.90;99.90;;;;;;5552637;26;20459;-82
2024/04/23 02:10:09;;;;;;;10.05;4.53;;;1.80;99.90;;;;;;5520460;26;20006;-83
2024/04/23 02:12:37;;;;;;;7.72;4.57;;;1.80;99.90;;;;;;5489825;26;20045;-84
2024/04/23 02:15:04;;;;;;;8.68;4.93;;;0.80;99.90;;;;;;5554196;26;20451;-83
2024/04/23 02:17:51;;;;;;;8.13;3.85;;;0.70;99.90;;;;;;5477642;26;20014;-83
2024/04/23 02:20:18;;;;;;;8.52;4.30;;;0.70;99.90;;;;;;5503114;26;20020;-83
2024/04/23 02:22:45;;;;;;;7.93;4.55;;;0.70;99.90;;;;;;5508064;26;20005;-83
2024/04/23 02:25:11;;;;;;;7.10;3.88;;;0.70;99.90;;;;;;5458032;26;20351;-83
2024/04/23 02:27:38;;;;;;;7.75;4.22;;;0.70;99.90;;;;;;5520538;26;20006;-83
2024/04/23 02:30:05;;;;;;;8.48;4.57;;;1.10;99.90;;;;;;5497312;26;20006;-83
2024/04/23 02:32:32;;;;;;;7.22;4.15;;;0.70;99.90;;;;;;5534253;26;20033;-83
2024/04/23 02:34:59;;;;;;;8.43;4.38;;;0.60;99.90;;;;;;5516098;26;20006;-83
2024/04/23 02:37:26;;;;;;;6.72;3.83;;;1.30;99.90;;;;;;5526907;26;20035;-83
2024/04/23 02:39:52;;;;;;;6.63;3.67;;;0.60;99.90;;;;;;5486191;26;20017;-83
2024/04/23 02:42:19;;;;;;;8.50;4.20;;;0.60;99.90;;;;;;5522578;26;20034;-83
2024/04/23 02:44:46;;;;;;;9.30;5.03;;;1.60;99.90;;;;;;5481464;26;20020;-83
2024/04/23 02:47:15;;;;;;;8.20;4.55;;;1.60;99.90;;;;;;5496281;26;20006;-83
2024/04/23 02:49:42;;;;;;;11.00;4.45;;;0.60;99.90;;;;;;5502510;26;20406;-83
2024/04/23 02:52:29;;;;;;;8.02;4.38;;;1.50;99.90;;;;;;5537043;26;20029;-83
2024/04/23 02:54:56;;;;;;;8.25;4.30;;;0.50;99.90;;;;;;5490677;26;20022;-83
2024/04/23 02:57:23;;;;;;;8.20;4.40;;;1.50;99.90;;;;;;5497084;26;20006;-83
2024/04/23 02:59:49;;;;;;;7.22;4.32;;;0.50;99.90;;;;;;5523258;26;20016;-83
2024/04/23 03:02:16;;;;;;;8.57;4.38;;;0.50;99.90;;;;;;5539915;26;20030;-83
2024/04/23 03:04:43;;;;;;;8.93;5.03;;;1.50;99.90;;;;;;5503131;26;20082;-83
2024/04/23 03:07:12;;;;;;;7.65;4.20;;;0.50;99.90;;;;;;5496401;26;20074;-83
2024/04/23 03:09:59;;;;;;;9.63;4.50;;;0.50;99.90;;;;;;5476728;26;20002;-83
2024/04/23 03:12:26;;;;;;;9.38;4.72;;;0.50;99.90;;;;;;5520820;26;20021;-83
2024/04/23 03:14:52;;;;;;;10.02;4.50;;;0.50;99.90;;;;;;5549918;26;20005;-82
2024/04/23 03:17:19;;;;;;;9.00;4.68;;;0.40;99.90;;;;;;5499173;26;20014;-83
2024/04/23 03:20:06;;;;;;;10.07;4.88;;;0.40;99.90;;;;;;5527392;26;20017;-83
2024/04/23 03:22:40;;;;;;;8.38;4.68;;;0.40;99.90;;;;;;5478303;26;20006;-83
2024/04/23 03:25:09;;;;;;;7.93;4.35;;;0.40;99.90;;;;;;5556401;26;20006;-83
2024/04/23 03:27:36;;;;;;;8.85;4.50;;;0.40;99.90;;;;;;5465627;26;20075;-83
2024/04/23 03:30:03;;;;;;;8.15;4.38;;;0.50;99.90;;;;;;5496409;26;20017;-83
2024/04/23 03:32:30;;;;;;;10.55;5.03;;;0.40;99.90;;;;;;5524354;26;20447;-83
2024/04/23 03:34:56;;;;;;;9.02;4.45;;;0.40;99.90;;;;;;5534961;26;20458;-83
2024/04/23 03:37:23;;;;;;;7.45;4.32;;;0.90;99.90;;;;;;5503673;26;20025;-83
2024/04/23 03:40:10;;;;;;;9.80;4.75;;;0.40;99.90;;;;;;5493596;26;21918;-82
2024/04/23 03:42:37;;;;;;;8.70;4.60;;;1.40;99.90;;;;;;5502910;26;20005;-83
2024/04/23 03:45:03;;;;;;;10.73;5.22;;;0.30;99.90;;;;;;5508917;26;20010;-83
2024/04/23 03:47:31;;;;;;;9.82;4.80;;;0.30;99.90;;;;;;5502646;26;20450;-83
2024/04/23 03:50:18;;;;;;;9.68;4.85;;;0.30;99.90;;;;;;5496907;26;20521;-83
2024/04/23 03:52:45;;;;;;;8.63;4.78;;;0.30;99.90;;;;;;5524944;26;20021;-83
2024/04/23 03:55:12;;;;;;;8.98;4.45;;;0.20;99.90;;;;;;5539811;25;20006;-82
2024/04/23 03:57:39;;;;;;;8.55;4.72;;;0.30;99.90;;;;;;5496174;26;20006;-83
2024/04/23 04:00:17;;;;;;;8.57;4.53;;;0.20;99.90;;;;;;5511832;26;20006;-83
2024/04/23 04:08:22;;;;;;;8.70;4.68;;;0.20;99.90;;;;;;5535945;26;20459;-83
2024/04/23 04:11:09;;;;;;;9.13;4.70;;;0.30;99.90;;;;;;5453651;26;20459;-82
2024/04/23 04:13:41;;;;;;;10.00;5.07;;;0.20;99.90;;;;;;5509242;26;20021;-83
2024/04/23 04:16:28;;;;;;;9.50;4.50;;;0.20;99.90;;;;;;5506304;26;20016;-83
2024/04/23 04:19:09;;;;;;;8.85;4.68;;;0.20;99.90;;;;;;5526787;26;20057;-83
2024/04/23 04:21:36;;;;;;;9.50;5.15;;;0.20;99.90;;;;;;5509070;26;20370;-83
2024/04/23 04:24:03;;;;;;;9.20;4.75;;;1.00;99.90;;;;;;5528501;26;20007;-83
2024/04/23 04:26:29;;;;;;;9.02;4.82;;;0.20;99.90;;;;;;5509478;26;20002;-83
2024/04/23 04:28:56;;;;;;;9.90;5.10;;;0.20;99.90;;;;;;5514325;26;20083;-83
2024/04/23 04:31:23;;;;;;;8.15;4.47;;;-0.10;99.90;;;;;;5500676;26;20006;-84
2024/04/23 04:33:50;;;;;;;11.88;5.13;;;0.20;99.90;;;;;;5529654;26;20033;-83
2024/04/23 04:36:16;;;;;;;10.35;5.10;;;0.20;99.90;;;;;;5518936;26;20021;-84
2024/04/23 04:38:43;;;;;;;9.25;4.95;;;0.20;99.90;;;;;;5546140;26;20006;-83
2024/04/23 04:41:10;;;;;;;9.55;5.15;;;0.30;99.90;;;;;;5527793;26;20006;-83
2024/04/23 04:43:37;;;;;;;9.18;5.47;;;0.90;99.90;;;;;;5527888;26;20082;-83
2024/04/23 04:46:03;;;;;;;8.52;4.88;;;0.30;99.90;;;;;;5561724;25;20014;-83
2024/04/23 04:48:30;;;;;;;12.82;5.32;;;0.30;99.90;;;;;;5535389;26;20017;-83
2024/04/23 04:50:58;;;;;;;9.05;5.13;;;0.90;99.90;;;;;;5507141;26;20010;-84
2024/04/23 04:53:26;;;;;;;9.95;5.30;;;1.20;99.90;;;;;;5495572;26;20010;-83
2024/04/23 04:55:53;;;;;;;10.98;5.72;;;0.40;99.90;;;;;;5496338;26;20021;-83
2024/04/23 04:58:20;;;;;;;10.90;5.10;;;0.40;99.90;;;;;;5531431;26;20037;-83
2024/04/23 05:00:50;;;;;;;9.82;5.30;;;0.50;99.90;;;;;;5518320;26;20022;-83
2024/04/23 05:03:17;;;;;;;9.82;5.28;;;0.50;99.90;;;;;;5551183;26;20419;-83
2024/04/23 05:05:44;;;;;;;10.00;5.32;;;0.50;99.90;;;;;;5506653;25;20006;-83
2024/04/23 05:08:11;;;;;;;10.93;5.90;;;0.50;99.90;;;;;;5525215;26;20006;-83
2024/04/23 05:10:38;;;;;;;11.57;6.00;;;0.60;99.90;;;;;;5550719;25;20025;-83
2024/04/23 05:13:05;;;;;;;9.15;5.05;;;0.60;99.90;;;;;;5493784;26;20044;-83
2024/04/23 05:15:31;;;;;;;9.80;5.75;;;0.60;99.90;;;;;;5478598;26;20005;-83
2024/04/23 05:17:58;;;;;;;9.13;5.38;;;1.20;99.90;;;;;;5556185;26;20006;-83
2024/04/23 05:20:25;;;;;;;11.07;5.75;;;1.00;99.90;;;;;;5514826;26;20949;-83
2024/04/23 05:22:52;;;;;;;10.45;5.63;;;0.80;99.90;;;;;;5506176;26;20006;-83
2024/04/23 05:25:18;;;;;;;11.32;5.88;;;0.80;99.90;;;;;;5493818;26;20010;-83
2024/04/23 05:27:45;;;;;;;12.18;5.53;;;0.90;99.90;;;;;;5495100;26;20006;-83
2024/04/23 05:32:46;;;;;;;12.80;6.03;;;1.00;99.90;;;;;;5516301;26;20358;-83
2024/04/23 05:32:59;;;;;;;12.63;6.50;;;1.10;99.90;;;;;;5540053;26;20382;-83
2024/04/23 05:35:25;;;;;;;12.82;6.80;;;1.10;99.90;;;;;;5484210;26;20006;-83
2024/04/23 05:37:52;;;;;;;13.10;6.97;;;1.60;99.90;;;;;;5491403;26;20034;-83
2024/04/23 05:40:19;;;;;;;14.88;7.95;;;1.30;99.90;;;;;;5494129;26;20068;-83
2024/04/23 05:42:45;;;;;;;13.95;7.65;;;1.30;99.90;;;;;;5473574;26;20006;-83
2024/04/23 05:45:12;;;;;;;15.55;7.90;;;1.40;99.90;;;;;;5491167;26;20463;-83
2024/04/23 05:48:17;;;;;;;13.65;7.82;;;1.70;99.90;;;;;;5499345;26;20006;-83
2024/04/23 05:51:21;;;;;;;13.65;6.97;;;1.50;99.90;;;;;;5522046;26;20029;-83
2024/04/23 05:54:27;;;;;;;14.98;7.85;;;1.60;99.90;;;;;;5484270;26;20021;-84
2024/04/23 05:56:54;;;;;;;14.13;7.30;;;1.70;99.90;;;;;;5509737;26;20355;-83
2024/04/23 05:59:20;;;;;;;14.57;7.07;;;2.50;99.90;;;;;;5517304;26;20037;-83
2024/04/23 06:01:47;;;;;;;13.70;7.53;;;1.90;99.90;;;;;;5509363;26;20021;-83
2024/04/23 06:04:14;;;;;;;13.93;7.65;;;2.10;99.90;;;;;;5559636;25;20015;-84
2024/04/23 06:06:41;;;;;;;13.18;7.00;;;2.20;99.90;;;;;;5506532;26;20014;-83
2024/04/23 06:09:08;;;;;;;13.30;6.65;;;2.20;99.90;;;;;;5497402;26;20515;-83
2024/04/23 06:11:34;;;;;;;15.90;6.65;;;2.30;99.90;;;;;;5506741;26;20017;-83
2024/04/23 06:14:08;;;;;;;12.40;7.03;;;2.40;99.90;;;;;;5529480;26;20014;-84
2024/04/23 06:16:34;;;;;;;14.02;7.07;;;2.40;99.90;;;;;;5519461;25;20020;-84
2024/04/23 06:19:01;;;;;;;12.10;6.07;;;2.60;99.90;;;;;;5540480;26;20351;-84
2024/04/23 06:21:28;;;;;;;11.30;6.78;;;2.70;99.90;;;;;;5498086;26;20006;-83
2024/04/23 06:23:55;;;;;;;11.70;6.20;;;3.50;99.90;;;;;;5535126;26;20006;-84
2024/04/23 06:26:21;;;;;;;12.63;6.30;;;2.80;99.90;;;;;;5547470;26;20014;-84
2024/04/23 06:28:48;;;;;;;10.02;5.80;;;3.80;99.90;;;;;;5502370;26;20006;-84
2024/04/23 06:31:15;;;;;;;13.98;6.07;;;4.00;99.90;;;;;;5480464;26;20006;-84
2024/04/23 06:33:42;;;;;;;12.65;6.07;;;4.10;99.90;;;;;;5495850;26;20022;-84
2024/04/23 06:36:08;;;;;;;10.50;5.78;;;3.20;99.90;;;;;;5564802;26;20473;-84
2024/04/23 06:38:35;;;;;;;10.98;5.70;;;4.30;99.90;;;;;;5498245;26;20808;-84
2024/04/23 06:41:02;;;;;;;10.45;5.45;;;3.40;99.90;;;;;;5509647;26;20092;-84
2024/04/23 06:43:28;;;;;;;12.18;5.80;;;3.50;99.90;;;;;;5505710;26;20007;-84
2024/04/23 06:45:55;;;;;;;10.20;5.38;;;3.60;99.90;;;;;;5539144;26;20010;-84
2024/04/23 06:48:22;;;;;;;9.23;5.18;;;4.30;99.90;;;;;;5509184;26;20423;-84
2024/04/23 06:50:48;;;;;;;9.50;4.53;;;3.80;99.90;;;;;;5501135;26;20013;-85
2024/04/23 06:53:15;;;;;;;13.63;4.53;;;4.50;99.90;;;;;;5530810;26;20414;-85
2024/04/23 06:55:43;;;;;;;8.27;4.25;;;4.40;99.90;;;;;;5530514;26;20363;-86
2024/04/23 06:58:10;;;;;;;12.52;5.43;;;4.10;99.90;;;;;;5495268;26;20020;-86
2024/04/23 07:00:36;;;;;;;7.95;4.55;;;4.20;99.90;;;;;;5499042;26;20014;-86
2024/04/23 07:03:04;;;;;;;7.68;4.25;;;4.20;99.90;;;;;;5498913;26;20024;-85
2024/04/23 07:05:31;;;;;;;7.72;4.35;;;4.40;99.90;;;;;;5507775;26;20009;-85
2024/04/23 07:07:58;;;;;;;7.50;4.47;;;4.90;99.90;;;;;;5504764;26;20017;-85
2024/04/23 07:10:25;;;;;;;12.00;4.70;;;4.70;99.90;;;;;;5519112;26;20014;-85
2024/04/23 07:12:51;;;;;;;7.80;4.78;;;4.90;99.90;;;;;;5529637;26;20088;-85
2024/04/23 07:15:18;;;;;;;7.80;4.60;;;5.80;99.90;;;;;;5507511;26;20460;-85
2024/04/23 07:17:48;;;;;;;7.78;4.55;;;6.10;99.90;;;;;;5526195;26;20089;-85
2024/04/23 07:20:15;;;;;;;9.68;5.05;;;5.40;99.90;;;;;;5495078;26;20006;-85
2024/04/23 07:22:42;;;;;;;9.55;4.95;;;5.30;99.90;;;;;;5539628;26;20016;-85
2024/04/23 07:25:09;;;;;;;9.73;4.90;;;6.50;99.90;;;;;;5518470;26;20370;-85
2024/04/23 07:27:36;;;;;;;9.93;4.60;;;5.50;99.90;;;;;;5505929;25;20005;-85
2024/04/23 13:04:26;;;;;;;6.55;2.28;;;11.70;94.70;;;;;;5483425;26;20778;-84
2024/04/23 13:06:54;;;;;;;5.22;2.28;;;11.70;94.80;;;;;;5468107;26;20003;-84
2024/04/23 13:09:20;;;;;;;3.83;1.98;;;11.60;93.60;;;;;;5472194;26;20007;-85
2024/04/23 13:11:47;;;;;;;4.57;2.20;;;11.90;95.10;;;;;;5453417;26;20011;-84
2024/04/23 13:14:14;;;;;;;3.33;1.92;;;11.90;94.60;;;;;;5520550;25;20008;-84
2024/04/23 13:16:41;;;;;;;3.50;1.90;;;12.00;93.60;;;;;;5447611;26;20017;-84
2024/04/23 13:19:08;;;;;;;4.15;2.10;;;11.70;93.00;;;;;;5469557;26;20007;-85
2024/04/23 13:21:34;;;;;;;3.38;1.75;;;11.70;93.80;;;;;;5461711;26;20053;-86
2024/04/23 13:24:02;;;;;;;3.15;1.90;;;11.70;94.40;;;;;;5472755;26;20022;-87
2024/04/23 13:26:28;;;;;;;4.18;2.25;;;11.80;93.60;;;;;;5523238;26;20003;-85
2024/04/23 13:28:55;;;;;;;4.80;2.28;;;11.30;93.20;;;;;;5474546;26;20459;-85
2024/04/23 13:31:22;;;;;;;3.97;1.80;;;11.30;95.40;;;;;;5436761;26;20034;-86
2024/04/23 13:33:49;;;;;;;3.60;1.98;;;11.40;95.10;;;;;;5465634;26;20050;-86
2024/04/23 13:36:17;;;;;;;3.50;1.63;;;11.40;95.30;;;;;;5453760;26;20007;-85
2024/04/23 13:38:45;;;;;;;3.88;1.90;;;11.30;93.90;;;;;;5510431;26;20079;-85
2024/04/23 13:41:19;;;;;;;3.47;2.00;;;11.20;92.50;;;;;;5465248;26;20008;-85
2024/04/23 13:43:48;;;;;;;5.22;1.65;;;11.00;92.90;;;;;;5450438;26;20017;-86
2024/04/23 13:46:16;;;;;;;3.50;2.00;;;11.00;93.40;;;;;;5463200;26;20007;-85
2024/04/23 13:48:43;;;;;;;4.53;1.75;;;11.00;93.50;;;;;;5440467;26;20007;-85
2024/04/23 13:51:12;;;;;;;3.75;1.73;;;11.10;95.10;;;;;;5454771;26;20004;-85
2024/04/23 13:53:39;;;;;;;4.22;1.73;;;11.20;95.30;;;;;;5520484;26;20086;-85
2024/04/23 13:56:09;;;;;;;3.85;1.80;;;11.20;95.20;;;;;;5426794;26;20008;-86
2024/04/23 13:58:36;;;;;;;2.97;1.50;;;11.20;94.50;;;;;;5413763;26;20052;-85
2024/04/23 14:01:07;;;;;;;3.10;1.65;;;11.10;94.40;;;;;;5449131;26;20018;-86
2024/04/23 14:03:35;;;;;;;3.83;1.70;;;11.00;94.00;;;;;;5470151;26;20044;-86
2024/04/23 14:06:06;;;;;;;3.75;1.88;;;10.90;93.70;;;;;;5420893;26;20042;-86
2024/04/23 14:08:37;;;;;;;4.40;1.52;;;10.90;94.40;;;;;;5389038;26;20028;-86
2024/04/23 14:11:08;;;;;;;3.33;2.20;;;11.00;95.10;;;;;;5449120;26;20089;-86
2024/04/23 14:13:37;;;;;;;3.75;1.52;;;11.00;94.20;;;;;;5432515;26;20039;-85
2024/04/23 14:16:11;;;;;;;3.75;1.80;;;10.90;94.60;;;;;;5434516;26;20055;-85
2024/04/23 14:18:41;;;;;;;2.60;1.55;;;10.90;94.50;;;;;;5407795;26;20036;-86
2024/04/23 14:21:10;;;;;;;3.67;1.75;;;10.80;94.90;;;;;;5445516;26;20023;-85
2024/04/23 14:23:43;;;;;;;3.45;1.55;;;10.70;95.80;;;;;;5410351;26;20051;-86
2024/04/23 14:26:18;;;;;;;4.50;1.90;;;10.60;95.90;;;;;;5454715;26;20018;-85
2024/04/23 14:28:46;;;;;;;3.97;1.52;;;10.60;95.40;;;;;;5437746;26;20011;-86
2024/04/23 14:31:13;;;;;;;4.20;1.70;;;10.60;95.40;;;;;;5449470;26;20007;-86
2024/04/23 14:33:43;;;;;;;3.70;1.63;;;10.40;95.70;;;;;;5452225;26;20475;-86
2024/04/23 14:36:10;;;;;;;3.08;1.42;;;10.30;95.30;;;;;;5422099;26;20107;-87
2024/04/23 14:38:37;;;;;;;4.32;1.85;;;10.30;95.60;;;;;;5434427;26;20050;-85
2024/04/23 14:41:07;;;;;;;3.00;1.52;;;10.20;96.00;;;;;;5451937;26;20019;-86
2024/04/23 14:43:35;;;;;;;6.22;2.25;;;10.20;96.20;;;;;;5430379;26;20007;-86
2024/04/23 14:46:13;;;;;;;5.00;1.83;;;10.30;96.60;;;;;;5386981;26;20443;-87
2024/04/23 14:48:40;;;;;;;3.40;1.60;;;10.20;96.20;;;;;;5435313;26;20016;-87
2024/04/23 14:51:08;;;;;;;3.42;1.75;;;10.70;96.30;;;;;;5438403;26;20347;-86
2024/04/23 14:53:36;;;;;;;3.28;1.58;;;9.90;97.00;;;;;;5428883;26;20030;-85
2024/04/23 14:56:05;;;;;;;3.83;1.80;;;9.80;97.40;;;;;;5430137;26;20082;-85
2024/04/23 14:58:33;;;;;;;8.50;1.55;;;9.50;98.00;;;;;;5436165;26;20007;-86
2024/04/23 15:01:01;;;;;;;2.95;1.48;;;9.60;97.90;;;;;;5394305;26;20018;-86
2024/04/23 15:03:32;;;;;;;4.82;1.80;;;9.50;98.30;;;;;;5440356;26;20350;-86
2024/04/23 15:06:06;;;;;;;3.55;1.42;;;9.60;98.60;;;;;;5435208;26;20019;-85
2024/04/23 15:08:40;;;;;;;3.33;1.75;;;9.50;98.50;;;;;;5402910;26;20498;-85
2024/04/23 15:11:09;;;;;;;3.10;1.65;;;9.30;99.00;;;;;;5439193;26;20018;-86
2024/04/23 15:13:36;;;;;;;4.18;1.83;;;9.30;99.10;;;;;;5389948;26;20016;-86
2024/04/23 15:16:08;;;;;;;3.38;1.42;;;9.40;99.50;;;;;;5441911;26;20019;-84
2024/04/23 15:18:38;;;;;;;2.65;1.38;;;9.10;99.60;;;;;;5431668;26;20094;-85
2024/04/23 15:21:10;;;;;;;2.63;1.42;;;9.00;99.90;;;;;;5441585;26;20024;-84
2024/04/23 15:23:37;;;;;;;2.22;1.20;;;8.80;99.90;;;;;;5389028;26;20019;-84
2024/04/23 15:26:05;;;;;;;5.65;1.80;;;9.20;99.90;;;;;;5439399;26;20024;-84
2024/04/23 15:28:34;;;;;;;5.50;1.60;;;8.60;99.90;;;;;;5456850;26;20050;-85
2024/04/23 15:31:05;;;;;;;3.30;1.40;;;8.50;99.90;;;;;;5428827;26;20008;-86
2024/04/23 15:33:39;;;;;;;3.90;1.58;;;8.50;99.90;;;;;;5440601;26;20538;-85
2024/04/23 15:36:07;;;;;;;3.53;1.80;;;8.30;99.90;;;;;;5443258;26;20017;-85
2024/04/23 15:38:34;;;;;;;3.70;1.80;;;8.20;99.90;;;;;;5455315;26;20023;-86
2024/04/23 15:41:02;;;;;;;6.55;4.20;;;8.20;99.90;;;;;;5452431;26;20022;-85
2024/04/23 15:43:31;;;;;;;3.28;1.80;;;8.10;99.90;;;;;;5389482;26;20023;-84
2024/04/23 15:45:59;;;;;;;6.63;1.58;;;8.20;99.90;;;;;;5450146;26;20007;-85
2024/04/23 15:48:33;;;;;;;2.83;1.38;;;8.60;99.90;;;;;;5469644;26;20700;-86
2024/04/23 15:51:00;;;;;;;4.93;1.80;;;8.10;99.90;;;;;;5423898;26;20121;-86
2024/04/23 15:53:29;;;;;;;3.47;1.95;;;8.10;99.90;;;;;;5429814;26;20007;-85
2024/04/23 15:56:10;;;;;;;3.33;1.80;;;8.30;99.90;;;;;;5426576;26;20016;-83
2024/04/23 15:58:39;;;;;;;3.90;2.10;;;7.90;99.90;;;;;;5432757;26;20004;-83
2024/04/23 16:01:07;;;;;;;4.53;2.20;;;7.80;99.90;;;;;;5418057;26;20022;-84
2024/04/23 16:03:41;;;;;;;4.07;2.15;;;7.90;99.90;;;;;;5389454;26;20325;-84
2024/04/23 16:06:14;;;;;;;4.22;2.22;;;7.80;99.90;;;;;;5419448;26;20016;-83
2024/04/23 16:08:40;;;;;;;4.97;2.50;;;7.80;99.90;;;;;;5419573;26;20011;-84
2024/04/23 16:11:09;;;;;;;6.20;2.58;;;8.10;99.90;;;;;;5451826;26;20003;-83
2024/04/23 16:13:37;;;;;;;4.10;2.17;;;7.70;99.90;;;;;;5455254;26;20451;-84
2024/04/23 16:16:04;;;;;;;4.85;2.70;;;8.40;99.90;;;;;;5453973;26;20004;-83
2024/04/23 16:22:00;;;;;;;6.53;3.00;;;7.80;99.90;;;;;;5405618;26;19996;-84
2024/04/23 16:24:29;;;;;;;6.07;2.88;;;7.70;99.90;;;;;;5418373;26;20000;-82
2024/04/23 16:26:57;;;;;;;4.60;2.63;;;7.70;99.90;;;;;;5445815;26;20003;-83
2024/04/23 16:29:23;;;;;;;5.78;2.70;;;7.70;99.90;;;;;;5453882;26;20372;-83
2024/04/23 16:31:50;;;;;;;9.13;5.03;;;7.70;99.90;;;;;;5453412;26;20018;-84
2024/04/23 16:34:17;;;;;;;5.60;3.38;;;8.70;99.90;;;;;;5453730;26;20011;-83
2024/04/23 16:36:44;;;;;;;10.38;6.68;;;7.60;99.90;;;;;;5455005;26;20014;-82
2024/04/23 16:39:11;;;;;;;9.27;3.80;;;7.60;99.90;;;;;;5423843;26;20027;-82
2024/04/23 16:41:37;;;;;;;7.78;3.88;;;7.50;99.90;;;;;;5453622;26;20007;-82
2024/04/23 16:44:04;;;;;;;10.82;7.35;;;7.20;99.90;;;;;;5453357;26;20011;-82
2024/04/23 16:46:31;;;;;;;7.75;3.63;;;7.10;99.90;;;;;;5454548;26;20007;-83
2024/04/23 16:48:58;;;;;;;8.88;4.35;;;6.90;99.90;;;;;;5446180;26;20020;-82
2024/04/23 16:51:25;;;;;;;5.88;3.45;;;6.80;99.90;;;;;;5417496;26;20004;-82
2024/04/23 16:53:52;;;;;;;5.32;3.15;;;6.80;99.90;;;;;;5440423;26;20376;-82
2024/04/23 16:56:18;;;;;;;6.25;3.60;;;6.80;99.90;;;;;;5452751;26;20017;-82
2024/04/23 16:58:47;;;;;;;7.30;3.67;;;6.70;99.90;;;;;;5452151;26;20459;-82
2024/04/23 17:01:14;;;;;;;6.30;3.38;;;6.80;99.90;;;;;;5432693;26;20036;-83
2024/04/23 17:03:43;;;;;;;6.40;3.45;;;6.60;99.90;;;;;;5445914;26;20080;-83
2024/04/23 17:06:10;;;;;;;6.10;3.58;;;6.60;99.90;;;;;;5426726;26;20016;-82
2024/04/23 17:08:37;;;;;;;5.22;3.10;;;6.60;99.90;;;;;;5435845;26;20089;-83
2024/04/23 17:11:05;;;;;;;6.40;3.47;;;6.50;99.90;;;;;;5425494;26;20012;-82
2024/04/23 17:13:33;;;;;;;7.00;3.53;;;7.10;99.90;;;;;;5438703;26;20406;-83
2024/04/23 17:16:12;;;;;;;5.63;3.17;;;7.30;99.90;;;;;;5414508;26;20009;-83
2024/04/23 17:18:39;;;;;;;7.00;3.85;;;6.50;99.90;;;;;;5443232;26;20027;-82
2024/04/23 17:21:19;;;;;;;6.63;4.00;;;6.40;99.90;;;;;;5445716;26;20008;-82
2024/04/23 17:23:49;;;;;;;6.32;3.50;;;6.60;99.90;;;;;;5445370;26;20043;-83
2024/04/23 17:26:17;;;;;;;6.95;3.35;;;6.40;99.90;;;;;;5413897;26;20027;-83
2024/04/23 17:28:43;;;;;;;6.75;3.47;;;6.50;99.90;;;;;;5418150;26;20019;-83
2024/04/23 17:31:16;;;;;;;7.38;3.88;;;7.10;99.90;;;;;;5441433;26;20348;-83
2024/04/23 17:33:46;;;;;;;5.72;3.55;;;6.30;99.90;;;;;;5437664;26;20014;-83
2024/04/23 17:36:12;;;;;;;6.50;3.88;;;6.30;99.90;;;;;;5442732;26;20016;-84
2024/04/23 17:38:41;;;;;;;5.88;3.65;;;6.30;99.90;;;;;;5439404;26;20019;-84
2024/04/23 17:41:07;;;;;;;6.53;3.75;;;6.30;99.90;;;;;;5455492;26;20015;-82
2024/04/23 17:43:38;;;;;;;7.05;3.78;;;6.30;99.90;;;;;;5403441;26;20453;-83
2024/04/23 17:46:05;;;;;;;9.52;4.15;;;6.30;99.90;;;;;;5431883;26;20021;-83
2024/04/23 17:48:36;;;;;;;6.45;3.50;;;6.20;99.90;;;;;;5434986;26;20538;-82
2024/04/23 17:51:05;;;;;;;7.30;4.07;;;6.90;99.90;;;;;;5418052;26;20005;-82
2024/04/23 17:53:32;;;;;;;8.02;4.57;;;6.10;99.90;;;;;;5363387;26;20018;-83
2024/04/23 17:56:00;;;;;;;5.68;3.72;;;5.90;99.90;;;;;;5438595;26;20020;-83
2024/04/23 17:58:28;;;;;;;6.57;3.38;;;6.10;99.90;;;;;;5443969;26;20016;-83
2024/04/23 18:00:55;;;;;;;7.13;4.30;;;6.40;99.90;;;;;;5419671;26;20012;-83
2024/04/23 18:03:22;;;;;;;6.53;4.05;;;6.10;99.90;;;;;;5440347;26;20464;-83
2024/04/23 18:05:50;;;;;;;8.77;4.28;;;6.10;99.90;;;;;;5438549;26;20085;-83
2024/04/23 18:08:16;;;;;;;8.32;4.05;;;5.40;99.90;;;;;;5431754;26;20017;-83
2024/04/23 18:10:43;;;;;;;8.80;4.15;;;7.00;99.90;;;;;;5448697;26;20008;-83
2024/04/23 18:13:10;;;;;;;7.47;3.65;;;6.10;99.90;;;;;;5434860;26;20108;-83
2024/04/23 18:15:40;;;;;;;5.93;3.10;;;6.20;99.90;;;;;;5426742;26;20000;-83
2024/04/23 18:18:08;;;;;;;7.28;2.78;;;7.00;99.90;;;;;;5455575;26;20079;-83
2024/04/23 18:20:35;;;;;;;5.38;2.83;;;6.40;99.90;;;;;;5424631;26;20023;-83
2024/04/23 18:23:03;;;;;;;4.93;3.20;;;6.10;99.90;;;;;;5421072;26;20008;-83
2024/04/23 18:25:29;;;;;;;6.55;3.33;;;6.20;99.90;;;;;;5429056;26;20031;-83
2024/04/23 18:27:56;;;;;;;5.15;2.90;;;6.20;99.90;;;;;;5456356;26;20008;-83
2024/04/23 18:30:24;;;;;;;7.57;3.03;;;6.20;99.90;;;;;;5439002;26;20007;-84
2024/04/23 18:32:51;;;;;;;6.47;2.58;;;7.00;99.90;;;;;;5431104;26;20455;-84
2024/04/23 18:35:21;;;;;;;8.63;2.40;;;6.90;99.90;;;;;;5455063;26;20022;-83
2024/04/23 18:37:50;;;;;;;5.60;2.33;;;6.20;99.90;;;;;;5455241;26;20022;-84
2024/04/23 18:40:17;;;;;;;7.68;4.70;;;6.20;99.90;;;;;;5425260;26;20007;-83
2024/04/23 18:42:44;;;;;;;10.68;3.22;;;7.20;99.90;;;;;;5426593;26;20022;-84
2024/04/23 18:45:11;;;;;;;7.45;2.97;;;6.40;99.90;;;;;;5456151;26;20007;-84